M/V Crosby Hustler — WDA3941 — position and weather

sailwx.info

Track history (hours):
 
Tides and Currents Weather Stations Pressure Air Temp Water Temp Dewpoint Dewpoint Depression Visibility Wind Speed Wind Dir Waves Ship Positions

M/V Crosby Hustler

Owner: CROSBY INLAND MARINE LLC, GOLDEN MEADOW, LA. More information available from US FCC via Universal Licensing System and Coast Guard Vessel Documentation Center.

Last reported at 2016-Feb-08 05:32 UTC. Time now 2016-Feb-08 05:58 UTC.
Position N 29°33' W 090°42'.

Length 18 m; draft 9 m.

Type: Tug. MMSI: 366804030.

Date/timePositionNaut miles runAvg speedWind from/ knotsBaromVisibWave heightAir tempDewpointWater temp
2016-Feb-08 05:32N 29°33' W 090°42'0 0.0
2016-Feb-08 04:32N 29°33' W 090°42'0 0.0
2016-Feb-08 03:32N 29°33' W 090°42'0 0.0
2016-Feb-08 02:32N 29°33' W 090°42'0 0.0
2016-Feb-08 01:32N 29°33' W 090°42'0 0.0
2016-Feb-08 00:32N 29°33' W 090°42'0 0.0
2016-Feb-07 23:32N 29°33' W 090°42'0 0.0
2016-Feb-07 22:32N 29°33' W 090°42'0 0.0
2016-Feb-07 21:32N 29°33' W 090°42'0 0.0
2016-Feb-07 20:32N 29°33' W 090°42'0 0.0
2016-Feb-07 19:32N 29°33' W 090°42'0 0.0
2016-Feb-07 18:32N 29°33' W 090°42'0 0.0
2016-Feb-07 17:32N 29°33' W 090°42'0 0.0
2016-Feb-07 16:32N 29°33' W 090°42'2 2.3
2016-Feb-07 15:32N 29°35' W 090°43'1 0.5
2016-Feb-07 14:34N 29°34' W 090°43'7 6.8
2016-Feb-07 13:33N 29°32' W 090°50'7 7.5
2016-Feb-07 12:33N 29°36' W 090°58'103 5.7
2016-Feb-06 18:33N 29°57' W 092°54'6 6.2
2016-Feb-06 17:33N 29°56' W 093°01'7 6.7
2016-Feb-06 16:33N 29°56' W 093°09'6 6.4
2016-Feb-06 15:33N 30°01' W 093°14'6 5.7
2016-Feb-06 14:32N 30°05' W 093°18'4 4.0
2016-Feb-06 13:33N 30°04' W 093°22'7 7.0
2016-Feb-06 12:33N 30°04' W 093°30'7 6.9
2016-Feb-06 11:33N 30°04' W 093°38'7 6.6
2016-Feb-06 10:33N 30°01' W 093°45'6 6.2
2016-Feb-06 09:32N 29°58' W 093°52'4 3.3
2016-Feb-06 08:11N 29°60' W 093°57'0 0.0
2016-Feb-06 07:23N 29°60' W 093°57'5 0.3
2016-Feb-05 14:33N 29°58' W 093°52'0 0.0
2016-Feb-05 13:24N 29°58' W 093°52'6 3.2
2016-Feb-05 11:33N 29°53' W 093°55'54 5.8
2016-Feb-05 02:11N 29°22' W 094°47'4 5.9
2016-Feb-05 01:33N 29°25' W 094°50'7 6.8
2016-Feb-05 00:33N 29°31' W 094°53'7 6.6
2016-Feb-04 23:33N 29°37' W 094°57'6 6.3
2016-Feb-04 22:33N 29°42' W 095°01'6 5.2
2016-Feb-04 21:28N 29°47' W 095°04'1 0.6
2016-Feb-04 20:32N 29°48' W 095°04'0 0.0
2016-Feb-04 19:23N 29°48' W 095°04'0 0.0
2016-Feb-04 18:32N 29°48' W 095°04'0 0.0
2016-Feb-04 17:32N 29°48' W 095°04'0 0.0
2016-Feb-04 16:32N 29°48' W 095°04'0 0.0
2016-Feb-04 15:23N 29°48' W 095°04'1 0.9
2016-Feb-04 14:31N 29°47' W 095°04'1 0.8
2016-Feb-04 13:33N 29°46' W 095°05'1 0.9
2016-Feb-04 12:32N 29°47' W 095°04'2 1.8
2016-Feb-04 11:32N 29°46' W 095°06'2 0.1
2016-Feb-03 15:28N 29°47' W 095°04'2 0.1
2016-Feb-02 11:31N 29°46' W 095°06'4 3.7
2016-Feb-02 10:33N 29°44' W 095°09'5 0.3
2016-Feb-01 18:32N 29°43' W 095°15'5 5.1
2016-Feb-01 17:33N 29°44' W 095°09'  
2016-Jan-29 22:33N 29°46' W 095°05'2 1.8
2016-Jan-29 21:29N 29°47' W 095°04'2 0.3
2016-Jan-29 13:26N 29°46' W 095°06'0 0.0
2016-Jan-29 09:29N 29°46' W 095°06'0 0.0
2016-Jan-29 08:31N 29°46' W 095°06'3 2.8
2016-Jan-29 07:33N 29°44' W 095°08'6 5.7
2016-Jan-29 06:33N 29°43' W 095°14'  
Track history (hours):
 
Tides and Currents Weather Stations Pressure Air Temp Water Temp Dewpoint Dewpoint Depression Visibility Wind Speed Wind Dir Waves Ship Positions

M/V Crosby Hustler

Owner: CROSBY INLAND MARINE LLC, GOLDEN MEADOW, LA. More information available from US FCC via Universal Licensing System and Coast Guard Vessel Documentation Center.

Last reported at 2016-Feb-08 05:32 UTC. Time now 2016-Feb-08 05:58 UTC.
Position N 29°33' W 090°42'.

Length 18 m; draft 9 m.

Type: Tug. MMSI: 366804030.

Date/timePositionNaut miles runAvg speedWind from/ knotsBaromVisibWave heightAir tempDewpointWater temp
2016-Feb-08 05:32N 29°33' W 090°42'0 0.0
2016-Feb-08 04:32N 29°33' W 090°42'0 0.0
2016-Feb-08 03:32N 29°33' W 090°42'0 0.0
2016-Feb-08 02:32N 29°33' W 090°42'0 0.0
2016-Feb-08 01:32N 29°33' W 090°42'0 0.0
2016-Feb-08 00:32N 29°33' W 090°42'0 0.0
2016-Feb-07 23:32N 29°33' W 090°42'0 0.0
2016-Feb-07 22:32N 29°33' W 090°42'0 0.0
2016-Feb-07 21:32N 29°33' W 090°42'0 0.0
2016-Feb-07 20:32N 29°33' W 090°42'0 0.0
2016-Feb-07 19:32N 29°33' W 090°42'0 0.0
2016-Feb-07 18:32N 29°33' W 090°42'0 0.0
2016-Feb-07 17:32N 29°33' W 090°42'0 0.0
2016-Feb-07 16:32N 29°33' W 090°42'2 2.3
2016-Feb-07 15:32N 29°35' W 090°43'1 0.5
2016-Feb-07 14:34N 29°34' W 090°43'7 6.8
2016-Feb-07 13:33N 29°32' W 090°50'7 7.5
2016-Feb-07 12:33N 29°36' W 090°58'103 5.7
2016-Feb-06 18:33N 29°57' W 092°54'6 6.2
2016-Feb-06 17:33N 29°56' W 093°01'7 6.7
2016-Feb-06 16:33N 29°56' W 093°09'6 6.4
2016-Feb-06 15:33N 30°01' W 093°14'6 5.7
2016-Feb-06 14:32N 30°05' W 093°18'4 4.0
2016-Feb-06 13:33N 30°04' W 093°22'7 7.0
2016-Feb-06 12:33N 30°04' W 093°30'7 6.9
2016-Feb-06 11:33N 30°04' W 093°38'7 6.6
2016-Feb-06 10:33N 30°01' W 093°45'6 6.2
2016-Feb-06 09:32N 29°58' W 093°52'4 3.3
2016-Feb-06 08:11N 29°60' W 093°57'0 0.0
2016-Feb-06 07:23N 29°60' W 093°57'5 0.3
2016-Feb-05 14:33N 29°58' W 093°52'0 0.0
2016-Feb-05 13:24N 29°58' W 093°52'6 3.2
2016-Feb-05 11:33N 29°53' W 093°55'54 5.8
2016-Feb-05 02:11N 29°22' W 094°47'4 5.9
2016-Feb-05 01:33N 29°25' W 094°50'7 6.8
2016-Feb-05 00:33N 29°31' W 094°53'7 6.6
2016-Feb-04 23:33N 29°37' W 094°57'6 6.3
2016-Feb-04 22:33N 29°42' W 095°01'6 5.2
2016-Feb-04 21:28N 29°47' W 095°04'1 0.6
2016-Feb-04 20:32N 29°48' W 095°04'0 0.0
2016-Feb-04 19:23N 29°48' W 095°04'0 0.0
2016-Feb-04 18:32N 29°48' W 095°04'0 0.0
2016-Feb-04 17:32N 29°48' W 095°04'0 0.0
2016-Feb-04 16:32N 29°48' W 095°04'0 0.0
2016-Feb-04 15:23N 29°48' W 095°04'1 0.9
2016-Feb-04 14:31N 29°47' W 095°04'1 0.8
2016-Feb-04 13:33N 29°46' W 095°05'1 0.9
2016-Feb-04 12:32N 29°47' W 095°04'2 1.8
2016-Feb-04 11:32N 29°46' W 095°06'2 0.1
2016-Feb-03 15:28N 29°47' W 095°04'2 0.1
2016-Feb-02 11:31N 29°46' W 095°06'4 3.7
2016-Feb-02 10:33N 29°44' W 095°09'5 0.3
2016-Feb-01 18:32N 29°43' W 095°15'5 5.1
2016-Feb-01 17:33N 29°44' W 095°09'  
2016-Jan-29 22:33N 29°46' W 095°05'2 1.8
2016-Jan-29 21:29N 29°47' W 095°04'2 0.3
2016-Jan-29 13:26N 29°46' W 095°06'0 0.0
2016-Jan-29 09:29N 29°46' W 095°06'0 0.0
2016-Jan-29 08:31N 29°46' W 095°06'3 2.8
2016-Jan-29 07:33N 29°44' W 095°08'6 5.7
2016-Jan-29 06:33N 29°43' W 095°14'  

Dump ship's entire track history